Time;durP1;ratioP1;P1;durP2;ratioP2;P2;SDS_P1;SDS_P2;PMS_P1;PMS_P2;Temp;Humidity;BMP_temperature;BMP_pressure;BME280_temperature;BME280_humidity;BME280_pressure;Samples;Min_cycle;Max_cycle;Signal;HPM_P1;HPM_P2
2022/12/07 00:00:01;;;;;;;27.92;25.38;;;4.90;99.90;;;;;;5026430;28;20516;-76
2022/12/07 00:02:28;;;;;;;28.33;25.63;;;4.90;99.90;;;;;;5035554;28;20429;-75
2022/12/07 00:04:55;;;;;;;27.73;25.13;;;4.90;99.90;;;;;;5029993;28;20417;-76
2022/12/07 00:07:23;;;;;;;28.98;26.30;;;4.90;99.90;;;;;;5030635;28;20476;-76
2022/12/07 00:09:50;;;;;;;27.40;24.80;;;5.00;99.90;;;;;;5046146;28;20580;-76
2022/12/07 00:12:16;;;;;;;27.02;24.42;;;5.00;99.90;;;;;;5022326;28;20433;-75
2022/12/07 00:14:43;;;;;;;26.02;23.58;;;5.00;99.90;;;;;;5028799;28;20514;-76
2022/12/07 00:17:10;;;;;;;26.50;23.90;;;5.00;99.90;;;;;;5034375;28;20411;-76
2022/12/07 00:19:37;;;;;;;26.40;23.90;;;5.00;99.90;;;;;;5042200;28;20419;-76
2022/12/07 00:22:03;;;;;;;27.52;25.02;;;5.00;99.90;;;;;;5032597;28;20449;-76
2022/12/07 00:24:31;;;;;;;25.80;23.33;;;5.00;99.90;;;;;;5029218;28;20520;-76
2022/12/07 00:26:58;;;;;;;27.60;25.02;;;5.00;99.90;;;;;;5028924;28;20505;-76
2022/12/07 00:29:25;;;;;;;26.00;23.50;;;5.00;99.90;;;;;;5017003;28;20433;-76
2022/12/07 00:31:52;;;;;;;25.85;23.30;;;5.00;99.90;;;;;;5019320;28;20421;-76
2022/12/07 00:34:20;;;;;;;27.33;24.92;;;5.00;99.90;;;;;;5025375;28;20435;-75
2022/12/07 00:36:47;;;;;;;27.73;25.13;;;4.90;99.90;;;;;;5026354;28;20444;-76
2022/12/07 00:39:14;;;;;;;26.50;24.10;;;5.00;99.90;;;;;;5033907;28;20451;-76
2022/12/07 00:41:42;;;;;;;27.05;24.55;;;4.90;99.90;;;;;;5031687;28;20433;-76
2022/12/07 00:44:09;;;;;;;25.52;23.02;;;4.90;99.90;;;;;;5018654;28;20439;-76
2022/12/07 00:46:36;;;;;;;26.77;24.02;;;4.90;99.90;;;;;;5023960;28;20429;-76
2022/12/07 00:49:03;;;;;;;26.52;24.13;;;4.90;99.90;;;;;;5025027;28;20550;-76
2022/12/07 00:51:30;;;;;;;26.05;23.70;;;5.00;99.90;;;;;;5016140;28;20432;-76
2022/12/07 00:53:57;;;;;;;26.47;24.03;;;4.90;99.90;;;;;;5017224;28;20448;-76
2022/12/07 00:56:26;;;;;;;25.95;23.55;;;5.00;99.90;;;;;;5017904;28;20427;-76
2022/12/07 00:58:56;;;;;;;25.67;23.08;;;5.00;99.90;;;;;;5015702;28;20444;-76
2022/12/07 01:01:23;;;;;;;24.77;22.48;;;5.00;99.90;;;;;;5013035;28;20432;-75
2022/12/07 01:03:50;;;;;;;26.40;24.00;;;5.00;99.90;;;;;;5019144;28;20427;-76
2022/12/07 01:06:18;;;;;;;26.50;24.10;;;5.10;99.90;;;;;;5013691;28;20519;-76
2022/12/07 01:08:45;;;;;;;26.45;23.92;;;5.10;99.90;;;;;;5016119;28;20480;-76
2022/12/07 01:11:14;;;;;;;25.75;23.35;;;5.10;99.90;;;;;;5015032;28;20875;-76
2022/12/07 01:13:42;;;;;;;27.88;25.38;;;5.10;99.90;;;;;;5024319;28;20409;-76
2022/12/07 01:16:13;;;;;;;26.92;24.42;;;5.10;99.90;;;;;;5015794;28;20464;-76
2022/12/07 01:18:40;;;;;;;24.73;22.63;;;5.10;99.90;;;;;;5030564;28;20427;-76
2022/12/07 01:21:10;;;;;;;25.75;23.55;;;5.20;99.90;;;;;;5029887;28;20415;-76
2022/12/07 01:23:38;;;;;;;27.08;24.63;;;5.20;99.90;;;;;;5009220;28;20477;-76
2022/12/07 01:26:07;;;;;;;26.25;23.90;;;5.20;99.90;;;;;;5013438;28;20507;-75
2022/12/07 01:28:34;;;;;;;26.88;24.27;;;5.20;99.90;;;;;;5011246;28;20456;-75
2022/12/07 01:31:04;;;;;;;26.27;23.92;;;5.20;99.90;;;;;;5024512;28;20520;-75
2022/12/07 01:33:34;;;;;;;26.70;24.20;;;5.20;99.90;;;;;;5030452;28;20496;-74
2022/12/07 01:36:06;;;;;;;25.50;23.10;;;5.20;99.90;;;;;;5028941;28;20448;-74
2022/12/07 01:38:33;;;;;;;28.63;25.92;;;5.20;99.90;;;;;;5032022;28;20498;-75
2022/12/07 01:41:02;;;;;;;27.50;24.90;;;5.20;99.90;;;;;;5023790;28;20552;-76
2022/12/07 01:43:31;;;;;;;26.23;23.92;;;5.20;99.90;;;;;;5017152;28;20463;-75
2022/12/07 01:45:58;;;;;;;26.40;24.10;;;5.30;99.90;;;;;;5014724;28;20432;-75
2022/12/07 01:48:29;;;;;;;27.47;25.03;;;5.20;99.90;;;;;;5014155;28;20528;-75
2022/12/07 01:51:05;;;;;;;27.40;24.80;;;5.20;99.90;;;;;;5025105;28;20879;-75
2022/12/07 01:53:33;;;;;;;27.27;24.67;;;5.20;99.90;;;;;;5014021;28;20433;-75
2022/12/07 01:56:00;;;;;;;27.07;24.67;;;5.20;99.90;;;;;;5014801;28;20436;-75
2022/12/07 01:58:27;;;;;;;28.08;25.48;;;5.20;99.90;;;;;;5017565;28;20432;-75
2022/12/07 02:00:54;;;;;;;27.90;25.30;;;5.20;99.90;;;;;;5019936;28;20500;-75
2022/12/07 02:03:26;;;;;;;27.35;24.75;;;5.20;99.90;;;;;;5027365;28;20483;-75
2022/12/07 02:05:55;;;;;;;28.65;25.95;;;5.20;99.90;;;;;;5022962;28;20440;-74
2022/12/07 02:08:23;;;;;;;28.52;25.92;;;5.20;99.90;;;;;;5018457;28;20428;-75
2022/12/07 02:10:50;;;;;;;27.98;25.38;;;5.20;99.90;;;;;;5022218;28;20523;-74
2022/12/07 02:13:20;;;;;;;29.42;26.75;;;5.20;99.90;;;;;;5025691;28;20435;-75
2022/12/07 02:16:11;;;;;;;28.63;26.02;;;5.10;99.90;;;;;;5025625;28;20472;-75
2022/12/07 02:18:50;;;;;;;27.73;25.13;;;5.10;99.90;;;;;;5019293;28;20425;-75
2022/12/07 02:21:27;;;;;;;28.95;26.25;;;5.10;99.90;;;;;;5009015;28;20894;-75
2022/12/07 02:24:20;;;;;;;28.90;26.30;;;5.10;99.90;;;;;;5021382;28;20434;-75
2022/12/07 02:27:11;;;;;;;26.70;24.20;;;5.10;99.90;;;;;;5016567;28;20425;-75
2022/12/07 02:29:46;;;;;;;26.80;24.20;;;5.10;99.90;;;;;;5010528;28;20434;-76
2022/12/07 02:32:17;;;;;;;26.80;24.40;;;5.10;99.90;;;;;;5009816;28;20502;-74
2022/12/07 02:34:50;;;;;;;27.43;24.93;;;5.00;99.90;;;;;;5019555;28;20434;-76
2022/12/07 02:37:28;;;;;;;26.43;24.03;;;5.00;99.90;;;;;;5015307;28;20426;-76
2022/12/07 02:40:00;;;;;;;26.95;24.55;;;5.00;99.90;;;;;;5013921;28;20493;-75
2022/12/07 02:42:34;;;;;;;26.87;24.40;;;5.00;99.90;;;;;;5013708;28;20579;-75
2022/12/07 02:45:04;;;;;;;28.08;25.48;;;5.10;99.90;;;;;;5012552;28;20447;-75
2022/12/07 02:47:32;;;;;;;28.63;25.93;;;5.00;99.90;;;;;;5013872;28;20534;-76
2022/12/07 02:49:59;;;;;;;26.33;24.02;;;5.00;99.90;;;;;;5014922;28;20795;-75
2022/12/07 02:52:26;;;;;;;26.63;24.33;;;5.10;99.90;;;;;;5020231;28;20469;-74
2022/12/07 02:54:53;;;;;;;26.83;24.52;;;5.10;99.90;;;;;;5016561;28;20906;-74
2022/12/07 02:57:35;;;;;;;26.75;24.52;;;5.10;99.90;;;;;;5025149;28;20439;-75
2022/12/07 03:00:08;;;;;;;27.67;24.98;;;5.10;99.90;;;;;;5013473;28;20437;-75
2022/12/07 03:02:45;;;;;;;28.60;25.90;;;5.10;99.90;;;;;;5023668;28;20574;-74
2022/12/07 03:05:37;;;;;;;28.75;25.98;;;5.00;99.90;;;;;;5019822;28;20531;-75
2022/12/07 03:08:08;;;;;;;30.05;27.15;;;5.10;99.90;;;;;;5016100;28;20428;-76
2022/12/07 03:10:41;;;;;;;28.93;26.33;;;5.10;99.90;;;;;;5027534;28;20498;-75
2022/12/07 03:13:13;;;;;;;29.10;26.30;;;5.10;99.90;;;;;;5012749;28;20898;-75
2022/12/07 03:15:48;;;;;;;28.75;26.05;;;5.00;99.90;;;;;;5015200;28;20591;-74
2022/12/07 03:18:19;;;;;;;27.00;24.40;;;5.10;99.90;;;;;;5012959;28;20445;-75
2022/12/07 03:20:49;;;;;;;28.48;25.88;;;5.10;99.90;;;;;;5015276;28;20742;-74
2022/12/07 03:23:18;;;;;;;28.58;25.88;;;5.10;99.90;;;;;;4998498;28;20748;-74
2022/12/07 03:25:54;;;;;;;29.13;26.42;;;5.10;99.90;;;;;;5004540;28;20810;-75
2022/12/07 03:28:25;;;;;;;27.30;24.50;;;5.10;99.90;;;;;;5007531;28;20437;-75
2022/12/07 03:30:58;;;;;;;27.63;25.00;;;5.10;99.90;;;;;;5005756;28;20465;-75
2022/12/07 03:33:30;;;;;;;30.40;27.60;;;5.10;99.90;;;;;;5016716;28;20539;-75
2022/12/07 03:36:04;;;;;;;29.05;26.25;;;5.10;99.90;;;;;;5013558;28;20418;-75
2022/12/07 03:38:35;;;;;;;29.42;26.63;;;5.10;99.90;;;;;;5001402;28;20878;-75
2022/12/07 03:41:07;;;;;;;29.50;26.70;;;5.10;99.90;;;;;;5004810;28;20895;-75
2022/12/07 03:43:35;;;;;;;29.25;26.55;;;5.10;99.90;;;;;;5009435;28;20432;-75
2022/12/07 03:46:16;;;;;;;29.58;26.77;;;5.10;99.90;;;;;;5033598;28;20419;-75
2022/12/07 03:48:51;;;;;;;27.85;25.25;;;5.10;99.90;;;;;;5030649;28;20433;-76
2022/12/07 03:51:23;;;;;;;27.52;24.85;;;5.10;99.90;;;;;;5017319;28;20544;-75
2022/12/07 03:53:54;;;;;;;28.92;26.23;;;5.10;99.90;;;;;;5011391;28;20425;-75
2022/12/07 03:56:22;;;;;;;28.60;25.90;;;5.10;99.90;;;;;;5008515;28;20508;-75
2022/12/07 03:58:50;;;;;;;28.15;25.45;;;5.10;99.90;;;;;;5013370;28;20420;-75
2022/12/07 04:01:18;;;;;;;27.23;24.65;;;5.10;99.90;;;;;;5008342;28;20433;-75
2022/12/07 04:03:45;;;;;;;27.65;24.95;;;5.10;99.90;;;;;;5006788;28;20429;-75
2022/12/07 04:06:12;;;;;;;27.40;24.90;;;5.10;99.90;;;;;;5007505;28;20440;-75
2022/12/07 04:08:39;;;;;;;27.23;24.63;;;5.10;99.90;;;;;;5005573;28;20744;-75
2022/12/07 04:11:06;;;;;;;27.58;24.98;;;5.00;99.90;;;;;;5008276;28;20939;-75
2022/12/07 04:14:17;;;;;;;27.90;25.20;;;5.00;99.90;;;;;;5008442;28;20478;-75
2022/12/07 04:16:21;;;;;;;27.98;25.20;;;5.10;99.90;;;;;;5002703;28;20453;-75
2022/12/07 04:18:48;;;;;;;27.00;24.50;;;5.10;99.90;;;;;;5010282;28;20447;-75
2022/12/07 04:21:14;;;;;;;27.20;24.50;;;5.10;99.90;;;;;;5029768;28;20442;-75
2022/12/07 04:23:41;;;;;;;27.30;24.60;;;5.10;99.90;;;;;;5028726;28;20427;-75
2022/12/07 04:26:08;;;;;;;27.95;25.38;;;5.10;99.90;;;;;;5016655;28;20447;-75
2022/12/07 04:28:34;;;;;;;26.07;23.57;;;5.10;99.90;;;;;;5009983;28;20420;-75
2022/12/07 04:31:01;;;;;;;26.90;24.30;;;5.10;99.90;;;;;;5007126;28;20459;-75
2022/12/07 04:33:29;;;;;;;27.48;24.77;;;5.10;99.90;;;;;;5013835;28;20444;-76
2022/12/07 04:35:56;;;;;;;28.00;25.50;;;5.10;99.90;;;;;;5016010;28;20433;-76
2022/12/07 04:38:23;;;;;;;27.73;25.13;;;5.10;99.90;;;;;;5008567;28;20767;-76
2022/12/07 04:40:50;;;;;;;29.15;26.40;;;5.10;99.90;;;;;;5007872;28;20427;-74
2022/12/07 04:43:16;;;;;;;28.83;26.17;;;5.00;99.90;;;;;;5017657;28;20509;-75
2022/12/07 04:45:47;;;;;;;28.35;25.75;;;5.00;99.90;;;;;;5006837;28;20441;-74
2022/12/07 04:48:13;;;;;;;29.20;26.20;;;5.00;99.90;;;;;;5013479;28;20422;-74
2022/12/07 04:50:42;;;;;;;28.95;26.25;;;4.90;99.90;;;;;;5034554;28;20419;-73
2022/12/07 04:53:08;;;;;;;27.80;25.23;;;5.00;99.90;;;;;;5032636;28;20518;-73
2022/12/07 04:55:35;;;;;;;29.15;26.25;;;4.90;99.90;;;;;;5041951;28;20737;-74
2022/12/07 04:58:02;;;;;;;28.20;25.50;;;4.90;99.90;;;;;;5024203;28;20503;-74
2022/12/07 05:00:28;;;;;;;29.42;26.70;;;4.90;99.90;;;;;;5033129;28;20445;-74
2022/12/07 05:02:55;;;;;;;29.27;26.58;;;4.90;99.90;;;;;;5020520;28;20436;-74
2022/12/07 05:05:22;;;;;;;29.25;26.33;;;4.90;99.90;;;;;;5017787;28;20880;-74
2022/12/07 05:07:50;;;;;;;28.42;25.58;;;4.90;99.90;;;;;;5003833;28;20433;-74
2022/12/07 05:10:17;;;;;;;28.65;26.02;;;5.00;99.90;;;;;;4992931;28;20425;-75
2022/12/07 05:12:45;;;;;;;27.98;25.27;;;4.90;99.90;;;;;;4993258;28;20449;-75
2022/12/07 05:15:12;;;;;;;28.10;25.40;;;5.00;99.90;;;;;;4994476;28;20430;-75
2022/12/07 05:17:39;;;;;;;28.33;25.73;;;5.00;99.90;;;;;;4999912;28;21154;-75
2022/12/07 05:20:07;;;;;;;27.70;25.20;;;5.00;99.90;;;;;;5007032;28;20431;-75
2022/12/07 05:22:34;;;;;;;29.83;27.13;;;5.00;99.90;;;;;;5001281;28;20445;-76
2022/12/07 05:25:02;;;;;;;25.92;23.63;;;5.00;99.90;;;;;;5007545;28;20536;-75
2022/12/07 05:27:28;;;;;;;28.52;25.83;;;5.00;99.90;;;;;;5013351;28;20757;-75
2022/12/07 05:29:55;;;;;;;28.38;25.77;;;5.00;99.90;;;;;;4996667;28;20432;-77
2022/12/07 05:32:22;;;;;;;27.48;25.08;;;5.00;99.90;;;;;;5000233;28;20428;-76
2022/12/07 05:34:49;;;;;;;28.55;25.95;;;5.00;99.90;;;;;;5011296;28;20517;-77
2022/12/07 05:37:15;;;;;;;28.58;25.88;;;5.00;99.90;;;;;;5002750;28;20490;-78
2022/12/07 05:39:42;;;;;;;29.27;26.27;;;5.00;99.90;;;;;;4993031;28;20440;-76
2022/12/07 05:42:15;;;;;;;28.27;25.52;;;4.90;99.90;;;;;;5002162;28;20906;-78
2022/12/07 05:44:43;;;;;;;27.60;24.92;;;4.90;99.90;;;;;;5001897;28;20429;-75
2022/12/07 05:47:09;;;;;;;30.30;27.60;;;4.90;99.90;;;;;;4999125;28;21058;-75
2022/12/07 05:49:36;;;;;;;30.00;27.17;;;4.90;99.90;;;;;;5001863;28;20815;-76
2022/12/07 05:52:04;;;;;;;30.00;27.00;;;4.90;99.90;;;;;;5001197;28;20943;-73
2022/12/07 05:54:31;;;;;;;28.75;26.00;;;4.80;99.90;;;;;;5006548;28;20955;-73
2022/12/07 05:56:58;;;;;;;30.92;27.88;;;4.80;99.90;;;;;;5005653;28;21013;-72
2022/12/07 05:59:27;;;;;;;31.40;28.40;;;4.70;99.90;;;;;;5002472;28;20432;-73
2022/12/07 06:01:55;;;;;;;28.80;26.00;;;4.70;99.90;;;;;;5002371;28;20434;-74
2022/12/07 06:04:23;;;;;;;29.00;26.10;;;4.70;99.90;;;;;;5005848;28;20756;-73
2022/12/07 06:06:50;;;;;;;30.30;27.45;;;4.60;99.90;;;;;;5000817;28;20486;-74
2022/12/07 06:09:19;;;;;;;28.80;26.00;;;4.60;99.90;;;;;;4998749;28;20436;-78
2022/12/07 06:14:31;;;;;;;31.52;28.33;;;4.60;99.90;;;;;;5009604;28;20496;-76
2022/12/07 06:16:58;;;;;;;31.40;28.40;;;4.50;99.90;;;;;;4999320;28;21018;-77
2022/12/07 06:19:25;;;;;;;30.60;27.60;;;4.50;99.90;;;;;;5010982;28;20430;-78
2022/12/07 06:21:52;;;;;;;31.67;28.38;;;4.50;99.90;;;;;;5010987;28;20432;-77
2022/12/07 06:24:19;;;;;;;31.30;28.08;;;4.50;99.90;;;;;;5002915;28;20447;-75
2022/12/07 06:26:46;;;;;;;33.40;29.93;;;4.40;99.90;;;;;;5001161;28;20546;-74
2022/12/07 06:29:14;;;;;;;34.95;31.27;;;4.30;99.90;;;;;;4998837;28;20437;-73
2022/12/07 06:31:42;;;;;;;35.75;31.65;;;4.30;99.90;;;;;;5014114;28;20442;-74
2022/12/07 06:34:12;;;;;;;36.03;32.30;;;4.30;99.90;;;;;;5020042;28;20473;-72
2022/12/07 06:36:39;;;;;;;37.13;33.22;;;4.30;99.90;;;;;;5016045;28;20424;-72
2022/12/07 06:39:08;;;;;;;36.78;32.88;;;4.30;99.90;;;;;;5013158;28;20446;-73
2022/12/07 06:41:35;;;;;;;35.90;32.30;;;4.30;99.90;;;;;;5005975;28;20436;-72
2022/12/07 06:44:02;;;;;;;35.38;31.85;;;4.30;99.90;;;;;;5005997;28;20436;-73
2022/12/07 06:46:29;;;;;;;36.67;32.97;;;4.30;99.90;;;;;;5001969;28;20451;-74
2022/12/07 06:48:57;;;;;;;35.33;31.83;;;4.40;99.90;;;;;;5017773;28;20451;-75
2022/12/07 06:51:24;;;;;;;35.00;31.60;;;4.40;99.90;;;;;;5022326;28;20467;-74
2022/12/07 06:53:50;;;;;;;33.97;30.67;;;4.40;99.90;;;;;;5026645;28;20440;-74
2022/12/07 06:56:17;;;;;;;33.97;30.50;;;4.40;99.90;;;;;;5033761;28;20464;-74
2022/12/07 06:58:44;;;;;;;33.45;29.95;;;4.40;99.90;;;;;;4996967;28;20439;-72
2022/12/07 07:01:12;;;;;;;33.75;30.45;;;4.40;99.90;;;;;;4998787;28;20546;-74
2022/12/07 07:03:39;;;;;;;32.72;29.50;;;4.40;99.90;;;;;;4996653;28;20432;-74
2022/12/07 07:06:08;;;;;;;33.47;30.07;;;4.40;99.90;;;;;;5004295;28;20518;-74
2022/12/07 07:08:36;;;;;;;33.05;29.75;;;4.40;99.90;;;;;;4995301;28;20957;-74
2022/12/07 07:11:06;;;;;;;33.08;29.58;;;4.40;99.90;;;;;;4999886;28;20448;-74
2022/12/07 07:13:34;;;;;;;32.85;29.63;;;4.40;99.90;;;;;;4994288;28;20433;-74
2022/12/07 07:16:01;;;;;;;34.42;30.83;;;4.30;99.90;;;;;;4998632;28;20440;-74
2022/12/07 07:18:28;;;;;;;33.83;30.40;;;4.30;99.90;;;;;;4997948;28;20834;-74
2022/12/07 07:20:55;;;;;;;33.50;30.08;;;4.30;99.90;;;;;;5004330;28;20926;-73
2022/12/07 07:23:24;;;;;;;33.35;30.05;;;4.40;99.90;;;;;;5004687;28;20440;-73
2022/12/07 07:25:51;;;;;;;34.22;30.63;;;4.40;99.90;;;;;;5002334;28;20463;-73
2022/12/07 07:28:18;;;;;;;34.03;30.55;;;4.40;99.90;;;;;;4999411;28;20474;-74
2022/12/07 07:30:45;;;;;;;32.27;29.23;;;4.50;99.90;;;;;;4988928;28;20437;-73
2022/12/07 07:33:12;;;;;;;31.02;27.88;;;4.50;99.90;;;;;;4995831;28;20488;-73
2022/12/07 07:35:39;;;;;;;31.52;28.13;;;4.50;99.90;;;;;;5003793;28;20459;-74
2022/12/07 07:38:07;;;;;;;28.60;25.80;;;4.50;99.90;;;;;;5003221;28;20502;-74
2022/12/07 07:40:35;;;;;;;31.80;28.73;;;4.60;99.90;;;;;;5005243;28;20416;-73
2022/12/07 07:43:02;;;;;;;32.23;29.23;;;4.50;99.90;;;;;;5007992;28;21012;-74
2022/12/07 07:45:29;;;;;;;32.20;28.80;;;4.50;99.90;;;;;;5006505;28;20911;-74
2022/12/07 07:47:56;;;;;;;30.17;27.40;;;4.50;99.90;;;;;;5000831;28;20429;-74
2022/12/07 07:50:23;;;;;;;33.42;30.23;;;4.50;99.90;;;;;;5004802;28;21040;-74
2022/12/07 07:52:50;;;;;;;30.63;27.63;;;4.50;99.90;;;;;;5005123;28;20459;-73
2022/12/07 07:55:16;;;;;;;32.40;29.20;;;4.40;99.90;;;;;;4994757;28;20426;-73
2022/12/07 07:57:45;;;;;;;31.65;28.35;;;4.50;99.90;;;;;;4998747;28;20444;-72
2022/12/07 08:00:14;;;;;;;30.75;27.75;;;4.60;99.90;;;;;;5009388;28;20429;-74
2022/12/07 08:02:42;;;;;;;31.52;28.42;;;4.60;99.90;;;;;;5022351;28;20421;-74
2022/12/07 08:05:10;;;;;;;30.27;27.42;;;4.60;99.90;;;;;;5018607;28;20797;-73
2022/12/07 08:07:37;;;;;;;30.83;27.73;;;4.70;99.90;;;;;;5002824;28;20462;-73
2022/12/07 08:10:06;;;;;;;31.17;28.27;;;4.70;99.90;;;;;;5000445;28;20441;-74
2022/12/07 08:12:36;;;;;;;32.05;28.95;;;4.70;99.90;;;;;;5004483;28;20946;-74
2022/12/07 08:15:04;;;;;;;29.50;26.60;;;4.70;99.90;;;;;;4999626;28;20531;-74
2022/12/07 08:17:31;;;;;;;29.08;26.48;;;4.80;99.90;;;;;;4996892;28;20434;-74
2022/12/07 08:19:58;;;;;;;30.13;27.02;;;4.70;99.90;;;;;;5006879;28;20438;-74
2022/12/07 08:22:25;;;;;;;28.60;25.80;;;4.80;99.90;;;;;;4994028;28;20524;-74
2022/12/07 08:24:51;;;;;;;30.33;27.38;;;4.80;99.90;;;;;;5007135;28;20558;-74
2022/12/07 08:27:18;;;;;;;28.60;25.98;;;4.80;99.90;;;;;;5004633;28;20547;-75
2022/12/07 08:29:45;;;;;;;27.40;24.70;;;4.80;99.90;;;;;;4997824;28;20781;-75
2022/12/07 08:32:13;;;;;;;27.50;24.80;;;4.70;99.90;;;;;;5006785;28;20436;-73
2022/12/07 08:34:40;;;;;;;25.05;22.60;;;4.70;99.90;;;;;;5002571;28;20422;-75
2022/12/07 08:37:07;;;;;;;25.30;22.77;;;4.80;99.90;;;;;;5003769;28;20443;-76
2022/12/07 08:39:33;;;;;;;26.63;23.95;;;4.80;99.90;;;;;;5005161;28;20554;-74
2022/12/07 08:42:00;;;;;;;26.48;23.58;;;4.80;99.90;;;;;;5009844;28;20769;-74
2022/12/07 08:44:27;;;;;;;27.70;24.70;;;4.80;99.90;;;;;;4998267;28;20436;-74
2022/12/07 08:46:57;;;;;;;25.02;22.52;;;4.90;99.90;;;;;;5005082;28;20503;-74
2022/12/07 08:49:32;;;;;;;26.42;23.65;;;5.00;99.90;;;;;;4988884;28;20418;-74
2022/12/07 08:52:00;;;;;;;24.55;22.17;;;5.10;99.90;;;;;;4997233;28;20462;-73
2022/12/07 08:54:28;;;;;;;22.88;20.67;;;5.20;99.90;;;;;;4999884;28;20539;-73
2022/12/07 08:56:57;;;;;;;23.52;21.23;;;5.30;99.90;;;;;;5009812;28;20433;-72
2022/12/07 08:59:24;;;;;;;23.02;20.83;;;5.30;99.90;;;;;;5004749;28;20440;-71
2022/12/07 09:01:51;;;;;;;23.75;21.60;;;5.40;99.90;;;;;;4997868;28;20451;-72
2022/12/07 09:04:17;;;;;;;21.80;19.80;;;5.40;99.90;;;;;;4989298;28;20438;-72
2022/12/07 09:06:46;;;;;;;23.10;20.90;;;5.50;99.90;;;;;;5001045;28;20425;-72
2022/12/07 09:09:13;;;;;;;21.40;19.20;;;5.50;99.90;;;;;;4994750;28;20497;-73
2022/12/07 09:11:41;;;;;;;21.80;19.60;;;5.60;99.90;;;;;;5000301;28;20423;-72
2022/12/07 09:14:08;;;;;;;19.20;17.30;;;5.70;99.90;;;;;;4997300;28;20875;-73
2022/12/07 09:16:34;;;;;;;18.80;17.10;;;5.80;99.90;;;;;;5004606;28;20421;-74
2022/12/07 09:19:01;;;;;;;18.73;17.02;;;6.00;99.90;;;;;;4997152;28;20484;-73
2022/12/07 09:21:28;;;;;;;18.40;16.80;;;6.20;99.90;;;;;;4997234;28;20434;-73
2022/12/07 09:23:56;;;;;;;17.57;15.80;;;6.20;99.80;;;;;;4990774;28;20469;-73
2022/12/07 09:26:23;;;;;;;18.27;16.38;;;6.10;99.30;;;;;;5000091;28;20417;-74
2022/12/07 09:28:50;;;;;;;16.67;15.07;;;6.00;99.20;;;;;;4993844;28;20811;-75
2022/12/07 09:31:17;;;;;;;17.48;15.88;;;6.00;99.10;;;;;;5003154;28;20490;-74
2022/12/07 09:33:44;;;;;;;16.30;14.80;;;6.00;99.30;;;;;;4994182;28;20520;-74
2022/12/07 09:36:10;;;;;;;17.00;15.30;;;6.00;99.10;;;;;;4993051;28;20899;-74
2022/12/07 09:38:37;;;;;;;16.50;14.90;;;5.90;98.80;;;;;;4993588;28;20425;-74
2022/12/07 09:41:09;;;;;;;17.30;15.70;;;5.90;99.10;;;;;;4998362;28;20420;-72
2022/12/07 09:43:39;;;;;;;16.55;15.05;;;5.80;99.10;;;;;;4998372;28;20437;-75
2022/12/07 09:46:06;;;;;;;16.08;14.57;;;5.80;99.10;;;;;;5005550;28;20469;-73
2022/12/07 09:48:36;;;;;;;15.70;14.05;;;5.80;99.40;;;;;;4999643;28;20434;-73
2022/12/07 09:51:04;;;;;;;15.85;14.25;;;5.80;99.80;;;;;;4995305;28;20438;-73
2022/12/07 09:53:35;;;;;;;16.23;14.63;;;5.80;99.10;;;;;;5001082;28;20425;-72
2022/12/07 09:56:03;;;;;;;14.63;13.23;;;5.80;99.30;;;;;;4998737;28;20451;-72
2022/12/07 09:58:33;;;;;;;16.02;14.60;;;5.80;99.10;;;;;;5002675;28;20440;-74
2022/12/07 10:01:06;;;;;;;16.27;14.75;;;5.80;99.40;;;;;;5005505;28;20447;-76
2022/12/07 10:03:33;;;;;;;14.80;13.30;;;5.80;99.30;;;;;;5005921;28;20531;-75
2022/12/07 10:06:00;;;;;;;15.18;13.68;;;5.90;99.20;;;;;;4995992;28;20450;-75
2022/12/07 10:08:27;;;;;;;14.90;13.47;;;5.90;99.30;;;;;;5006745;28;20858;-75
2022/12/07 10:10:56;;;;;;;13.63;12.00;;;6.00;99.60;;;;;;5000770;28;20506;-75
2022/12/07 10:13:35;;;;;;;14.40;12.93;;;6.10;98.90;;;;;;4994765;28;20424;-76
2022/12/07 10:16:01;;;;;;;12.95;11.50;;;6.20;98.50;;;;;;5011240;28;20426;-75
2022/12/07 10:18:30;;;;;;;12.20;11.00;;;6.20;97.00;;;;;;5011278;28;20425;-75
2022/12/07 10:21:13;;;;;;;12.40;11.10;;;6.20;97.20;;;;;;4999916;28;21125;-75
2022/12/07 10:23:41;;;;;;;12.47;11.20;;;6.20;97.40;;;;;;4997201;28;20485;-76
2022/12/07 10:26:27;;;;;;;12.43;11.20;;;6.20;97.70;;;;;;5011214;28;20436;-76
2022/12/07 10:28:56;;;;;;;11.65;10.45;;;6.20;97.20;;;;;;5006138;28;20733;-75
2022/12/07 10:31:24;;;;;;;12.13;10.77;;;6.10;96.40;;;;;;5004196;28;20556;-76
2022/12/07 10:33:52;;;;;;;11.45;10.35;;;6.10;96.50;;;;;;5003338;28;20433;-76
2022/12/07 10:36:23;;;;;;;11.52;10.40;;;6.10;96.80;;;;;;4993809;28;20531;-76
2022/12/07 10:38:52;;;;;;;13.20;11.77;;;6.10;96.40;;;;;;5001982;28;20448;-76
2022/12/07 10:41:20;;;;;;;12.07;10.93;;;6.10;96.60;;;;;;5005792;28;20432;-75
2022/12/07 10:43:49;;;;;;;10.90;9.80;;;6.00;97.00;;;;;;5000384;28;20432;-75
2022/12/07 10:46:35;;;;;;;13.00;10.82;;;6.10;97.10;;;;;;5015011;28;20489;-73
2022/12/07 10:49:14;;;;;;;14.80;11.52;;;6.20;97.10;;;;;;5008699;28;20539;-74
2022/12/07 10:51:49;;;;;;;11.80;10.60;;;6.20;96.70;;;;;;4998189;28;20524;-74
2022/12/07 10:54:26;;;;;;;11.63;10.43;;;6.30;96.30;;;;;;5007148;28;20475;-76
2022/12/07 10:57:15;;;;;;;11.43;10.32;;;6.40;96.10;;;;;;4997331;28;20479;-78
2022/12/07 11:00:01;;;;;;;11.88;10.50;;;6.50;96.30;;;;;;4995009;28;20504;-74
2022/12/07 11:02:47;;;;;;;12.48;11.18;;;6.70;96.10;;;;;;4998722;28;20722;-74
2022/12/07 11:05:22;;;;;;;10.50;9.50;;;6.80;95.50;;;;;;4991807;28;20539;-74
2022/12/07 11:08:01;;;;;;;10.43;9.45;;;6.90;94.60;;;;;;5006369;28;20440;-74
2022/12/07 11:10:39;;;;;;;11.15;10.05;;;6.90;94.80;;;;;;5015843;28;20442;-74
2022/12/07 11:13:23;;;;;;;11.10;10.00;;;6.80;94.20;;;;;;5005088;28;22622;-74
2022/12/07 11:16:03;;;;;;;9.65;8.75;;;6.70;94.30;;;;;;5011145;28;20479;-75
2022/12/07 11:18:42;;;;;;;10.65;9.07;;;6.70;95.00;;;;;;5015923;28;20442;-75
2022/12/07 11:21:15;;;;;;;9.65;8.65;;;6.70;94.80;;;;;;5015208;28;20464;-74
2022/12/07 11:23:52;;;;;;;11.05;8.93;;;6.60;94.40;;;;;;5007854;28;20492;-74
2022/12/07 11:26:30;;;;;;;11.38;8.35;;;6.60;94.80;;;;;;5008319;28;20446;-75
2022/12/07 11:29:24;;;;;;;12.52;8.40;;;6.70;94.50;;;;;;5009535;28;20452;-75
2022/12/07 11:32:01;;;;;;;10.00;9.00;;;6.70;94.30;;;;;;5017315;28;20423;-75
2022/12/07 11:34:38;;;;;;;11.77;8.77;;;6.70;94.20;;;;;;5012249;28;20437;-74
2022/12/07 11:37:12;;;;;;;11.65;8.65;;;6.80;94.40;;;;;;5007957;28;20423;-73
2022/12/07 11:39:45;;;;;;;9.38;8.48;;;6.80;94.10;;;;;;5018406;28;20575;-74
2022/12/07 11:42:17;;;;;;;9.05;8.10;;;6.80;94.00;;;;;;5015105;28;20429;-74
2022/12/07 11:44:51;;;;;;;9.60;7.65;;;6.80;93.70;;;;;;5006091;28;20432;-74
2022/12/07 11:47:23;;;;;;;9.20;8.30;;;6.80;93.80;;;;;;4996919;28;20434;-75
2022/12/07 11:49:57;;;;;;;9.60;8.23;;;6.80;93.80;;;;;;5009752;28;20478;-73
2022/12/07 11:52:33;;;;;;;9.45;8.20;;;6.70;93.50;;;;;;5016897;28;20458;-76
2022/12/07 11:55:02;;;;;;;9.32;8.43;;;6.60;94.20;;;;;;5012584;28;20817;-73
2022/12/07 11:57:36;;;;;;;10.02;8.50;;;6.60;94.50;;;;;;5007867;28;21113;-74
2022/12/07 12:00:07;;;;;;;8.82;7.90;;;6.60;94.20;;;;;;5013830;28;20424;-75
2022/12/07 12:02:39;;;;;;;8.70;7.72;;;6.60;94.50;;;;;;5018814;28;21097;-75
2022/12/07 12:05:16;;;;;;;11.07;9.15;;;6.50;94.20;;;;;;5015660;28;20435;-76
2022/12/07 12:07:45;;;;;;;10.95;9.15;;;6.50;94.50;;;;;;5020802;28;20571;-76
2022/12/07 12:10:20;;;;;;;9.82;8.27;;;6.50;93.90;;;;;;5022236;28;20435;-74
2022/12/07 12:13:13;;;;;;;9.70;8.70;;;6.50;93.60;;;;;;5012825;28;20548;-74
2022/12/07 12:15:52;;;;;;;10.30;9.30;;;6.40;93.80;;;;;;5019240;28;20461;-74
2022/12/07 12:18:37;;;;;;;11.57;9.63;;;6.40;94.20;;;;;;5020598;28;20793;-74
2022/12/07 12:21:08;;;;;;;11.95;10.80;;;6.30;94.40;;;;;;5007513;28;20433;-76
2022/12/07 12:23:41;;;;;;;13.00;11.10;;;6.30;94.50;;;;;;4998929;28;20477;-75
2022/12/07 12:26:15;;;;;;;13.95;11.60;;;6.30;94.40;;;;;;5010782;28;20485;-75
2022/12/07 12:28:51;;;;;;;14.00;11.32;;;6.20;94.30;;;;;;5002348;28;20926;-75
2022/12/07 12:31:35;;;;;;;13.23;11.27;;;6.20;94.30;;;;;;4998061;28;20448;-74
2022/12/07 12:34:04;;;;;;;14.27;11.75;;;6.10;94.60;;;;;;5008494;28;20416;-75
2022/12/07 12:36:47;;;;;;;13.82;12.15;;;6.10;95.00;;;;;;5000746;28;20440;-74
2022/12/07 12:39:15;;;;;;;12.45;11.15;;;6.10;95.00;;;;;;5002815;28;20975;-74
2022/12/07 12:42:07;;;;;;;13.65;11.90;;;6.10;94.90;;;;;;5005704;28;20506;-74
2022/12/07 12:44:42;;;;;;;14.73;11.48;;;6.20;94.70;;;;;;5003770;28;20437;-74
2022/12/07 12:47:42;;;;;;;13.27;11.98;;;6.20;94.70;;;;;;5005217;28;20481;-75
2022/12/07 12:50:18;;;;;;;13.40;12.10;;;6.30;94.80;;;;;;5003445;28;20524;-74
2022/12/07 12:52:54;;;;;;;13.63;12.10;;;6.30;94.80;;;;;;5005413;28;20482;-75
2022/12/07 12:55:52;;;;;;;12.60;11.30;;;6.30;94.60;;;;;;5006920;28;20504;-74